createdAt,value
2024-04-11T00:00:53.781Z,20.2
2024-04-11T00:02:09.914Z,20.2
2024-04-11T00:03:26.103Z,20.2
2024-04-11T00:04:41.359Z,20.2
2024-04-11T00:05:56.561Z,20.2
2024-04-11T00:07:12.695Z,20.2
2024-04-11T00:08:28.841Z,20.2
2024-04-11T00:09:44.956Z,20.2
2024-04-11T00:11:01.101Z,20.2
2024-04-11T00:12:17.243Z,20.1
2024-04-11T00:13:33.387Z,20.1
2024-04-11T00:14:49.513Z,20.1
2024-04-11T00:16:05.640Z,20.1
2024-04-11T00:17:21.775Z,20.2
2024-04-11T00:18:37.915Z,20.1
2024-04-11T00:19:54.071Z,20.1
2024-04-11T00:21:10.204Z,20.1
2024-04-11T00:22:26.328Z,20.1
2024-04-11T00:23:42.462Z,20.1
2024-04-11T00:24:58.586Z,20.1
2024-04-11T00:26:14.747Z,20.1
2024-04-11T00:27:30.882Z,20.1
2024-04-11T00:28:47.010Z,20.1
2024-04-11T00:30:03.143Z,20.1
2024-04-11T00:31:19.285Z,20.1
2024-04-11T00:33:51.551Z,20.1
2024-04-11T00:35:07.692Z,20.1
2024-04-11T00:36:23.831Z,20.1
2024-04-11T00:37:40.024Z,20.1
2024-04-11T00:38:55.261Z,20.1
2024-04-11T00:40:10.460Z,20.1
2024-04-11T00:41:25.606Z,20.1
2024-04-11T00:42:41.745Z,20.1
2024-04-11T00:43:57.870Z,20
2024-04-11T00:45:14.001Z,20
2024-04-11T00:46:30.151Z,20
2024-04-11T00:47:46.300Z,20
2024-04-11T00:49:02.415Z,20
2024-04-11T00:50:18.568Z,20
2024-04-11T00:51:34.686Z,20
2024-04-11T00:52:50.825Z,20
2024-04-11T00:54:06.968Z,20
2024-04-11T00:55:23.099Z,20
2024-04-11T00:56:39.235Z,20
2024-04-11T00:57:55.378Z,20
2024-04-11T00:59:11.515Z,20
2024-04-11T01:00:27.661Z,20
2024-04-11T01:01:43.787Z,20
2024-04-11T01:02:59.922Z,20
2024-04-11T01:04:16.062Z,20
2024-04-11T01:05:32.195Z,20
2024-04-11T01:06:48.339Z,20
2024-04-11T01:08:04.460Z,20
2024-04-11T01:09:20.603Z,20
2024-04-11T01:10:36.739Z,20
2024-04-11T01:11:52.872Z,20
2024-04-11T01:13:09.015Z,20
2024-04-11T01:14:25.143Z,19.9
2024-04-11T01:15:41.273Z,20
2024-04-11T01:16:57.424Z,20
2024-04-11T01:18:13.541Z,20
2024-04-11T01:19:29.697Z,20
2024-04-11T01:20:45.834Z,20
2024-04-11T01:22:01.958Z,19.9
2024-04-11T01:23:18.094Z,19.9
2024-04-11T01:24:34.219Z,19.9
2024-04-11T01:25:50.371Z,19.9
2024-04-11T01:27:06.506Z,19.9
2024-04-11T01:28:22.695Z,19.9
2024-04-11T01:29:37.945Z,19.9
2024-04-11T01:30:53.155Z,19.9
2024-04-11T01:32:09.272Z,19.9
2024-04-11T01:33:25.411Z,19.9
2024-04-11T01:34:41.552Z,19.9
2024-04-11T01:35:57.692Z,19.9
2024-04-11T01:37:13.827Z,19.9
2024-04-11T01:38:29.953Z,19.9
2024-04-11T01:39:46.093Z,19.9
2024-04-11T01:41:02.231Z,19.9
2024-04-11T01:42:18.383Z,19.9
2024-04-11T01:43:34.506Z,19.9
2024-04-11T01:44:50.646Z,19.9
2024-04-11T01:46:06.771Z,19.9
2024-04-11T01:47:22.907Z,19.9
2024-04-11T01:48:39.056Z,19.9
2024-04-11T01:49:55.193Z,19.9
2024-04-11T01:51:11.312Z,19.9
2024-04-11T01:52:27.461Z,19.9
2024-04-11T01:53:43.595Z,19.8
2024-04-11T01:54:59.727Z,19.8
2024-04-11T01:56:15.858Z,19.9
2024-04-11T01:57:31.992Z,19.9
2024-04-11T01:58:48.141Z,19.8
2024-04-11T02:00:04.256Z,19.8
2024-04-11T02:01:20.424Z,19.8
2024-04-11T02:02:36.596Z,19.8
2024-04-11T02:03:51.872Z,19.8
2024-04-11T02:05:08.065Z,19.8
2024-04-11T02:06:23.265Z,19.8
2024-04-11T02:07:39.394Z,19.8
2024-04-11T02:08:55.000Z,19.8
2024-04-11T02:10:11.663Z,19.8
2024-04-11T02:11:27.812Z,19.8
2024-04-11T02:12:43.945Z,19.8
2024-04-11T02:14:00.076Z,19.8
2024-04-11T02:15:16.203Z,19.8
2024-04-11T02:16:32.347Z,19.8
2024-04-11T02:17:48.500Z,19.8
2024-04-11T02:19:04.630Z,19.8
2024-04-11T02:20:20.760Z,19.8
2024-04-11T02:21:36.881Z,19.8
2024-04-11T02:22:53.013Z,19.8
2024-04-11T02:24:09.161Z,19.8
2024-04-11T02:25:25.301Z,19.8
2024-04-11T02:26:41.444Z,19.8
2024-04-11T02:27:57.571Z,19.8
2024-04-11T02:29:13.696Z,19.8
2024-04-11T02:30:29.846Z,19.7
2024-04-11T02:31:45.976Z,19.8
2024-04-11T02:33:02.112Z,19.7
2024-04-11T02:34:18.259Z,19.7
2024-04-11T02:35:34.391Z,19.7
2024-04-11T02:36:50.522Z,19.7
2024-04-11T02:38:06.713Z,19.7
2024-04-11T02:39:21.969Z,19.7
2024-04-11T02:40:37.165Z,19.7
2024-04-11T02:41:53.294Z,19.7
2024-04-11T02:43:09.427Z,19.7
2024-04-11T02:44:25.565Z,19.7
2024-04-11T02:45:41.690Z,19.7
2024-04-11T02:46:57.853Z,19.7
2024-04-11T02:48:13.987Z,19.7
2024-04-11T02:49:30.110Z,19.7
2024-04-11T02:50:46.254Z,19.7
2024-04-11T02:52:02.387Z,19.7
2024-04-11T02:53:18.537Z,19.7
2024-04-11T02:54:34.656Z,19.7
2024-04-11T02:55:50.788Z,19.7
2024-04-11T02:57:06.922Z,19.7
2024-04-11T02:58:23.063Z,19.7
2024-04-11T02:59:39.206Z,19.7
2024-04-11T03:00:55.348Z,19.7
2024-04-11T03:02:11.473Z,19.7
2024-04-11T03:03:27.610Z,19.7
2024-04-11T03:04:43.749Z,19.6
2024-04-11T03:05:59.890Z,19.6
2024-04-11T03:07:16.031Z,19.6
2024-04-11T03:08:32.156Z,19.6
2024-04-11T03:09:48.295Z,19.6
2024-04-11T03:11:04.430Z,19.6
2024-04-11T03:12:20.636Z,19.6
2024-04-11T03:13:35.867Z,19.6
2024-04-11T03:14:51.077Z,19.6
2024-04-11T03:16:07.225Z,19.6
2024-04-11T03:17:23.357Z,19.6
2024-04-11T03:18:39.479Z,19.6
2024-04-11T03:19:55.611Z,19.6
2024-04-11T03:21:11.748Z,19.6
2024-04-11T03:22:27.903Z,19.6
2024-04-11T03:23:44.020Z,19.6
2024-04-11T03:25:00.162Z,19.6
2024-04-11T03:26:16.302Z,19.6
2024-04-11T03:27:32.422Z,19.6
2024-04-11T03:28:48.000Z,19.6
2024-04-11T03:30:04.707Z,19.6
2024-04-11T03:31:20.836Z,19.6
2024-04-11T03:32:36.983Z,19.6
2024-04-11T03:33:53.111Z,19.6
2024-04-11T03:35:09.258Z,19.6
2024-04-11T03:36:25.399Z,19.6
2024-04-11T03:37:41.519Z,19.6
2024-04-11T03:38:57.000Z,19.6
2024-04-11T03:40:13.790Z,19.5
2024-04-11T03:41:29.934Z,19.6
2024-04-11T03:42:46.081Z,19.5
2024-04-11T03:44:02.207Z,19.6
2024-04-11T03:45:18.336Z,19.6
2024-04-11T03:46:34.520Z,19.5
2024-04-11T03:47:49.776Z,19.6
2024-04-11T03:49:05.965Z,19.6
2024-04-11T03:50:21.174Z,19.6
2024-04-11T03:51:37.303Z,19.6
2024-04-11T03:52:53.447Z,19.6
2024-04-11T03:54:09.578Z,19.6
2024-04-11T03:55:25.713Z,19.6
2024-04-11T03:56:41.845Z,19.6
2024-04-11T03:57:57.987Z,19.6
2024-04-11T03:59:14.128Z,19.6
2024-04-11T04:00:30.254Z,19.6
2024-04-11T04:01:46.389Z,19.6
2024-04-11T04:03:02.522Z,19.6
2024-04-11T04:04:18.676Z,19.6
2024-04-11T04:05:34.794Z,19.6
2024-04-11T04:06:50.935Z,19.6
2024-04-11T04:08:07.076Z,19.6
2024-04-11T04:09:23.201Z,19.5
2024-04-11T04:10:39.343Z,19.6
2024-04-11T04:11:55.484Z,19.5
2024-04-11T04:13:11.607Z,19.5
2024-04-11T04:14:27.000Z,19.5
2024-04-11T04:15:43.889Z,19.5
2024-04-11T04:17:00.036Z,19.5
2024-04-11T04:18:16.161Z,19.5
2024-04-11T04:19:32.283Z,19.5
2024-04-11T04:20:48.421Z,19.5
2024-04-11T04:22:04.626Z,19.5
2024-04-11T04:23:19.858Z,19.5
2024-04-11T04:24:35.066Z,19.5
2024-04-11T04:25:51.202Z,19.5
2024-04-11T04:27:07.355Z,19.5
2024-04-11T04:28:23.478Z,19.5
2024-04-11T04:29:39.613Z,19.5
2024-04-11T04:30:55.751Z,19.5
2024-04-11T04:32:11.883Z,19.5
2024-04-11T04:33:28.029Z,19.5
2024-04-11T04:34:44.162Z,19.5
2024-04-11T04:36:00.291Z,19.5
2024-04-11T04:37:16.428Z,19.5
2024-04-11T04:38:32.558Z,19.5
2024-04-11T04:39:48.697Z,19.6
2024-04-11T04:41:04.846Z,19.6
2024-04-11T04:42:20.964Z,19.6
2024-04-11T04:43:37.106Z,19.6
2024-04-11T04:44:53.236Z,19.6
2024-04-11T04:46:09.374Z,19.6
2024-04-11T04:47:25.512Z,19.6
2024-04-11T04:48:41.660Z,19.6
2024-04-11T04:49:57.775Z,19.6
2024-04-11T04:51:13.916Z,19.6
2024-04-11T04:52:30.069Z,19.6
2024-04-11T04:53:46.197Z,19.6
2024-04-11T04:55:02.335Z,19.6
2024-04-11T04:56:18.531Z,19.6
2024-04-11T04:57:33.754Z,19.6
2024-04-11T04:58:48.976Z,19.6
2024-04-11T05:00:04.125Z,19.6
2024-04-11T05:01:20.275Z,19.6
2024-04-11T05:02:36.389Z,19.6
2024-04-11T05:03:52.541Z,19.6
2024-04-11T05:05:08.671Z,19.7
2024-04-11T05:06:24.797Z,19.7
2024-04-11T05:07:40.951Z,19.7
2024-04-11T05:08:57.084Z,19.7
2024-04-11T05:10:13.213Z,19.7
2024-04-11T05:11:29.349Z,19.8
2024-04-11T05:12:45.482Z,19.8
2024-04-11T05:14:01.626Z,19.8
2024-04-11T05:15:17.767Z,19.8
2024-04-11T05:16:33.887Z,19.8
2024-04-11T05:17:50.026Z,19.8
2024-04-11T05:19:06.163Z,19.8
2024-04-11T05:20:22.302Z,19.9
2024-04-11T05:21:38.433Z,19.9
2024-04-11T05:22:54.580Z,19.9
2024-04-11T05:24:10.694Z,19.9
2024-04-11T05:25:26.845Z,19.9
2024-04-11T05:26:42.982Z,19.9
2024-04-11T05:27:59.119Z,19.9
2024-04-11T05:29:15.251Z,19.9
2024-04-11T05:30:31.386Z,20
2024-04-11T05:31:47.508Z,20
2024-04-11T05:33:03.661Z,20
2024-04-11T05:34:19.804Z,20
2024-04-11T05:35:35.939Z,20
2024-04-11T05:36:52.061Z,20
2024-04-11T05:38:08.194Z,20
2024-04-11T05:39:24.350Z,20
2024-04-11T05:40:40.485Z,20
2024-04-11T05:41:56.615Z,20
2024-04-11T05:43:12.739Z,20
2024-04-11T05:44:28.878Z,20
2024-04-11T05:45:45.017Z,20
2024-04-11T05:47:01.208Z,20
2024-04-11T05:48:16.457Z,20.1
2024-04-11T05:49:31.654Z,20.1
2024-04-11T05:50:47.787Z,20.1
2024-04-11T05:52:03.929Z,20.1
2024-04-11T05:53:20.057Z,20.2
2024-04-11T05:54:36.191Z,20.2
2024-04-11T05:55:52.333Z,20.2
2024-04-11T05:57:08.476Z,20.2
2024-04-11T05:58:24.600Z,20.2
2024-04-11T05:59:40.743Z,20.3
2024-04-11T06:00:56.873Z,20.3
2024-04-11T06:02:13.026Z,20.3
2024-04-11T06:03:29.155Z,20.3
2024-04-11T06:04:45.294Z,20.3
2024-04-11T06:06:01.416Z,20.4
2024-04-11T06:07:17.558Z,20.4
2024-04-11T06:08:33.694Z,20.4
2024-04-11T06:09:49.836Z,20.4
2024-04-11T06:11:05.979Z,20.4
2024-04-11T06:12:22.095Z,20.4
2024-04-11T06:13:38.230Z,20.4
2024-04-11T06:14:54.380Z,20.5
2024-04-11T06:16:10.519Z,20.5
2024-04-11T06:17:26.650Z,20.5
2024-04-11T06:18:42.793Z,20.6
2024-04-11T06:19:58.908Z,20.6
2024-04-11T06:21:15.119Z,20.6
2024-04-11T06:22:30.381Z,20.6
2024-04-11T06:23:46.571Z,20.6
2024-04-11T06:25:01.842Z,20.6
2024-04-11T06:26:17.060Z,20.7
2024-04-11T06:27:32.208Z,20.7
2024-04-11T06:28:48.339Z,20.7
2024-04-11T06:30:04.482Z,20.7
2024-04-11T06:31:20.620Z,20.8
2024-04-11T06:32:36.752Z,20.8
2024-04-11T06:33:52.885Z,20.8
2024-04-11T06:35:09.030Z,20.9
2024-04-11T06:36:25.165Z,20.9
2024-04-11T06:37:41.295Z,21
2024-04-11T06:38:57.426Z,21
2024-04-11T06:40:13.564Z,21.1
2024-04-11T06:41:29.719Z,21.2
2024-04-11T06:42:45.838Z,21.2
2024-04-11T06:44:01.973Z,21.3
2024-04-11T06:45:18.111Z,21.3
2024-04-11T06:46:34.236Z,21.4
2024-04-11T06:47:50.394Z,21.4
2024-04-11T06:49:06.522Z,21.5
2024-04-11T06:50:22.652Z,21.5
2024-04-11T06:51:38.785Z,21.6
2024-04-11T06:52:54.933Z,21.7
2024-04-11T06:54:11.078Z,21.7
2024-04-11T06:55:27.216Z,21.8
2024-04-11T06:56:43.340Z,21.9
2024-04-11T06:57:59.473Z,22
2024-04-11T06:59:15.604Z,22
2024-04-11T07:00:31.750Z,22.1
2024-04-11T07:01:47.877Z,22.2
2024-04-11T07:03:04.024Z,22.3
2024-04-11T07:04:20.152Z,22.5
2024-04-11T07:05:36.285Z,22.8
2024-04-11T07:06:52.424Z,23
2024-04-11T07:08:08.565Z,23.2
2024-04-11T07:09:24.691Z,23.4
2024-04-11T07:10:40.843Z,23.7
2024-04-11T07:11:56.972Z,23.8
2024-04-11T07:13:13.114Z,24
2024-04-11T07:14:29.312Z,24.1
2024-04-11T07:15:44.509Z,24.1
2024-04-11T07:17:00.652Z,24
2024-04-11T07:18:16.802Z,24
2024-04-11T07:19:32.924Z,24
2024-04-11T07:20:49.062Z,24.1
2024-04-11T07:22:05.194Z,24.3
2024-04-11T07:23:21.327Z,24.5
2024-04-11T07:24:37.485Z,24.8
2024-04-11T07:25:53.615Z,25.1
2024-04-11T07:27:09.746Z,25.4
2024-04-11T07:28:25.865Z,25.7
2024-04-11T07:29:42.005Z,25.7
2024-04-11T07:30:58.161Z,25.7
2024-04-11T07:32:14.293Z,25.8
2024-04-11T07:33:30.425Z,25.9
2024-04-11T07:36:02.691Z,25.9
2024-04-11T07:37:18.848Z,25.9
2024-04-11T07:38:34.972Z,25.8
2024-04-11T07:39:51.108Z,25.8
2024-04-11T07:41:07.230Z,25.7
2024-04-11T07:42:23.364Z,25.6
2024-04-11T07:43:39.513Z,25.6
2024-04-11T07:44:55.647Z,25.5
2024-04-11T07:46:11.783Z,25.5
2024-04-11T07:47:27.971Z,25.5
2024-04-11T07:48:43.215Z,25.5
2024-04-11T07:49:58.417Z,25.4
2024-04-11T07:51:13.564Z,25.3
2024-04-11T07:52:29.713Z,25.2
2024-04-11T07:53:45.856Z,25.2
2024-04-11T07:55:01.978Z,25.1
2024-04-11T07:56:18.122Z,25
2024-04-11T07:57:34.258Z,25
2024-04-11T07:58:50.409Z,24.9
2024-04-11T08:00:06.524Z,24.9
2024-04-11T08:01:22.667Z,24.9
2024-04-11T08:02:38.798Z,24.9
2024-04-11T08:03:54.940Z,24.9
2024-04-11T08:05:11.083Z,24.9
2024-04-11T08:06:27.207Z,24.9
2024-04-11T08:07:43.335Z,24.9
2024-04-11T08:08:59.486Z,25
2024-04-11T08:10:15.619Z,25
2024-04-11T08:11:31.753Z,24.9
2024-04-11T08:12:47.898Z,24.9
2024-04-11T08:14:04.019Z,24.9
2024-04-11T08:15:20.160Z,24.8
2024-04-11T08:16:36.298Z,24.8
2024-04-11T08:17:52.430Z,24.8
2024-04-11T08:19:08.572Z,24.7
2024-04-11T08:20:24.697Z,24.7
2024-04-11T08:21:40.827Z,24.6
2024-04-11T08:22:56.973Z,24.6
2024-04-11T08:24:13.114Z,24.5
2024-04-11T08:25:29.255Z,24.5
2024-04-11T08:26:45.384Z,24.4
2024-04-11T08:28:01.513Z,24.4
2024-04-11T08:29:17.643Z,24.4
2024-04-11T08:30:33.800Z,24.3
2024-04-11T08:31:49.922Z,24.3
2024-04-11T08:33:06.066Z,24.3
2024-04-11T08:34:22.194Z,24.3
2024-04-11T08:35:38.339Z,24.2
2024-04-11T08:36:54.477Z,24.2
2024-04-11T08:38:10.678Z,24.2
2024-04-11T08:39:25.903Z,24.1
2024-04-11T08:40:41.126Z,24.1
2024-04-11T08:41:57.243Z,24
2024-04-11T08:43:13.389Z,24
2024-04-11T08:44:29.512Z,24
2024-04-11T08:45:45.650Z,23.9
2024-04-11T08:47:01.788Z,23.9
2024-04-11T08:48:17.934Z,23.9
2024-04-11T08:49:34.068Z,23.8
2024-04-11T08:50:50.193Z,23.8
2024-04-11T08:52:06.331Z,23.8
2024-04-11T08:53:22.477Z,23.7
2024-04-11T08:54:38.611Z,23.7
2024-04-11T08:55:54.746Z,23.7
2024-04-11T08:57:10.871Z,23.7
2024-04-11T08:58:27.012Z,23.7
2024-04-11T08:59:43.155Z,23.8
2024-04-11T09:00:59.293Z,23.8
2024-04-11T09:02:15.422Z,23.8
2024-04-11T09:03:31.554Z,23.8
2024-04-11T09:04:47.699Z,23.8
2024-04-11T09:06:03.849Z,23.8
2024-04-11T09:07:19.977Z,23.9
2024-04-11T09:08:36.111Z,23.9
2024-04-11T09:09:52.237Z,23.9
2024-04-11T09:11:08.370Z,23.9
2024-04-11T09:12:24.589Z,23.9
2024-04-11T09:13:39.817Z,23.9
2024-04-11T09:14:55.030Z,23.9
2024-04-11T09:16:11.158Z,23.8
2024-04-11T09:17:27.307Z,23.8
2024-04-11T09:18:43.425Z,23.8
2024-04-11T09:19:59.569Z,23.8
2024-04-11T09:21:15.710Z,23.8
2024-04-11T09:22:31.852Z,23.8
2024-04-11T09:23:47.986Z,23.8
2024-04-11T09:25:04.123Z,23.8
2024-04-11T09:26:20.257Z,23.7
2024-04-11T09:27:36.376Z,23.7
2024-04-11T09:28:52.532Z,23.7
2024-04-11T09:30:08.669Z,23.7
2024-04-11T09:31:24.789Z,23.6
2024-04-11T09:32:40.928Z,23.6
2024-04-11T09:33:57.062Z,23.6
2024-04-11T09:35:13.207Z,23.5
2024-04-11T09:36:29.342Z,23.5
2024-04-11T09:37:45.478Z,23.4
2024-04-11T09:39:01.608Z,23.4
2024-04-11T09:40:17.752Z,23.4
2024-04-11T09:41:33.900Z,23.4
2024-04-11T09:42:50.024Z,23.3
2024-04-11T09:44:06.167Z,23.3
2024-04-11T09:45:22.297Z,23.3
2024-04-11T09:46:38.475Z,23.3
2024-04-11T09:47:53.734Z,23.2
2024-04-11T09:49:09.907Z,23.2
2024-04-11T09:50:25.115Z,23.2
2024-04-11T09:51:41.260Z,23.2
2024-04-11T09:52:57.393Z,23.2
2024-04-11T09:54:13.538Z,23.2
2024-04-11T09:55:29.672Z,23.1
2024-04-11T09:56:45.802Z,23.1
2024-04-11T09:58:01.950Z,23.1
2024-04-11T09:59:18.084Z,23.1
2024-04-11T10:00:34.213Z,23.1
2024-04-11T10:01:50.355Z,23
2024-04-11T10:03:06.482Z,23
2024-04-11T10:04:22.622Z,23
2024-04-11T10:05:38.769Z,23
2024-04-11T10:06:54.891Z,23
2024-04-11T10:08:11.038Z,23
2024-04-11T10:09:27.168Z,23
2024-04-11T10:10:43.320Z,23
2024-04-11T10:11:59.438Z,23
2024-04-11T10:13:15.580Z,22.9
2024-04-11T10:14:31.715Z,22.9
2024-04-11T10:15:47.836Z,22.9
2024-04-11T10:17:03.989Z,22.9
2024-04-11T10:18:20.118Z,22.9
2024-04-11T10:19:36.271Z,22.9
2024-04-11T10:20:52.393Z,22.9
2024-04-11T10:22:08.591Z,22.9
2024-04-11T10:23:23.818Z,22.9
2024-04-11T10:24:39.042Z,22.9
2024-04-11T10:25:55.161Z,22.9
2024-04-11T10:27:11.325Z,22.9
2024-04-11T10:28:27.442Z,22.8
2024-04-11T10:29:43.586Z,22.8
2024-04-11T10:30:59.707Z,22.8
2024-04-11T10:32:15.844Z,22.8
2024-04-11T10:33:31.989Z,22.8
2024-04-11T10:34:48.125Z,22.8
2024-04-11T10:36:04.268Z,22.8
2024-04-11T10:37:20.393Z,22.8
2024-04-11T10:38:36.538Z,22.8
2024-04-11T10:39:52.675Z,22.8
2024-04-11T10:41:08.802Z,22.8
2024-04-11T10:42:24.943Z,22.8
2024-04-11T10:43:41.070Z,22.8
2024-04-11T10:44:57.221Z,22.8
2024-04-11T10:46:13.368Z,22.8
2024-04-11T10:47:29.502Z,22.8
2024-04-11T10:48:45.634Z,22.8
2024-04-11T10:50:01.765Z,22.8
2024-04-11T10:51:17.901Z,22.8
2024-04-11T10:52:34.036Z,22.8
2024-04-11T10:53:50.167Z,22.8
2024-04-11T10:55:06.305Z,22.8
2024-04-11T10:56:22.507Z,22.8
2024-04-11T10:57:37.765Z,22.8
2024-04-11T10:58:52.958Z,22.8
2024-04-11T11:00:08.116Z,22.8
2024-04-11T11:01:24.273Z,22.8
2024-04-11T11:02:40.397Z,22.8
2024-04-11T11:03:56.540Z,22.8
2024-04-11T11:05:12.671Z,22.8
2024-04-11T11:06:28.803Z,22.8
2024-04-11T11:07:44.948Z,22.8
2024-04-11T11:09:01.073Z,22.8
2024-04-11T11:10:17.208Z,22.7
2024-04-11T11:11:33.338Z,22.8
2024-04-11T11:12:49.482Z,22.7
2024-04-11T11:14:05.622Z,22.8
2024-04-11T11:15:21.755Z,22.8
2024-04-11T11:16:37.887Z,22.8
2024-04-11T11:17:54.027Z,22.8
2024-04-11T11:19:10.164Z,22.8
2024-04-11T11:20:26.307Z,22.8
2024-04-11T11:21:42.449Z,22.8
2024-04-11T11:22:58.572Z,22.8
2024-04-11T11:24:14.706Z,22.9
2024-04-11T11:25:30.852Z,22.9
2024-04-11T11:26:46.997Z,22.9
2024-04-11T11:28:03.122Z,22.9
2024-04-11T11:29:19.253Z,22.9
2024-04-11T11:30:35.382Z,22.9
2024-04-11T11:31:51.528Z,22.9
2024-04-11T11:33:07.663Z,22.9
2024-04-11T11:34:23.800Z,22.9
2024-04-11T11:35:39.937Z,22.9
2024-04-11T11:36:56.062Z,23
2024-04-11T11:38:12.197Z,23
2024-04-11T11:39:28.359Z,23
2024-04-11T11:40:44.479Z,23
2024-04-11T11:42:00.620Z,23
2024-04-11T11:43:16.757Z,23
2024-04-11T11:44:32.885Z,23
2024-04-11T11:45:49.041Z,23
2024-04-11T11:47:05.232Z,23.1
2024-04-11T11:48:20.470Z,23.1
2024-04-11T11:49:35.670Z,23.1
2024-04-11T11:50:51.796Z,23.1
2024-04-11T11:52:07.931Z,23.2
2024-04-11T11:53:24.078Z,23.2
2024-04-11T11:54:40.200Z,23.2
2024-04-11T11:55:56.354Z,23.2
2024-04-11T11:57:12.481Z,23.2
2024-04-11T11:58:28.620Z,23.2
2024-04-11T11:59:44.744Z,23.2
2024-04-11T12:01:00.884Z,23.2
2024-04-11T12:02:17.030Z,23.2
2024-04-11T12:03:33.163Z,23.2
2024-04-11T12:04:49.294Z,23.2
2024-04-11T12:06:05.438Z,23.2
2024-04-11T12:07:21.572Z,23.2
2024-04-11T12:08:37.705Z,23.2
2024-04-11T12:09:53.841Z,23.2
2024-04-11T12:11:09.976Z,23.2
2024-04-11T12:12:26.115Z,23.2
2024-04-11T12:13:42.245Z,23.3
2024-04-11T12:14:58.402Z,23.3
2024-04-11T12:16:14.529Z,23.3
2024-04-11T12:17:30.662Z,23.3
2024-04-11T12:18:46.799Z,23.3
2024-04-11T12:20:02.933Z,23.4
2024-04-11T12:21:19.140Z,23.4
2024-04-11T12:22:34.368Z,23.4
2024-04-11T12:23:50.578Z,23.4
2024-04-11T12:25:05.782Z,23.4
2024-04-11T12:26:21.906Z,23.4
2024-04-11T12:27:38.047Z,23.4
2024-04-11T12:28:54.177Z,23.4
2024-04-11T12:30:10.310Z,23.4
2024-04-11T12:31:26.468Z,23.4
2024-04-11T12:32:42.598Z,23.5
2024-04-11T12:33:58.729Z,23.5
2024-04-11T12:35:14.858Z,23.5
2024-04-11T12:36:30.995Z,23.5
2024-04-11T12:37:47.144Z,23.5
2024-04-11T12:39:03.284Z,23.5
2024-04-11T12:40:19.411Z,23.5
2024-04-11T12:41:35.534Z,23.6
2024-04-11T12:42:51.669Z,23.6
2024-04-11T12:44:07.833Z,23.6
2024-04-11T12:45:23.952Z,23.6
2024-04-11T12:46:40.087Z,23.6
2024-04-11T12:47:56.221Z,23.6
2024-04-11T12:49:12.361Z,23.6
2024-04-11T12:50:28.506Z,23.6
2024-04-11T12:51:44.633Z,23.5
2024-04-11T12:53:00.770Z,23.5
2024-04-11T12:54:16.913Z,23.6
2024-04-11T12:55:33.186Z,23.6
2024-04-11T12:56:49.326Z,23.6
2024-04-11T12:58:05.455Z,23.6
2024-04-11T12:59:21.592Z,23.6
2024-04-11T13:00:37.734Z,23.7
2024-04-11T13:01:53.865Z,23.7
2024-04-11T13:03:10.008Z,23.7
2024-04-11T13:04:26.154Z,23.7
2024-04-11T13:05:42.282Z,23.7
2024-04-11T13:06:58.418Z,23.7
2024-04-11T13:08:14.549Z,23.7
2024-04-11T13:09:30.702Z,23.7
2024-04-11T13:10:46.838Z,23.7
2024-04-11T13:13:19.090Z,23.7
2024-04-11T13:14:35.233Z,23.7
2024-04-11T13:15:51.377Z,23.7
2024-04-11T13:17:07.515Z,23.7
2024-04-11T13:18:23.642Z,23.7
2024-04-11T13:19:39.770Z,23.7
2024-04-11T13:20:55.912Z,23.8
2024-04-11T13:22:12.063Z,23.7
2024-04-11T13:23:28.196Z,23.8
2024-04-11T13:24:44.321Z,23.8
2024-04-11T13:26:00.461Z,23.8
2024-04-11T13:27:16.655Z,23.8
2024-04-11T13:28:31.891Z,23.8
2024-04-11T13:29:47.100Z,23.8
2024-04-11T13:32:19.386Z,23.8
2024-04-11T13:33:35.514Z,23.8
2024-04-11T13:34:51.652Z,23.8
2024-04-11T13:36:07.772Z,23.8
2024-04-11T13:37:23.907Z,23.8
2024-04-11T13:38:40.051Z,23.8
2024-04-11T13:39:56.180Z,23.9
2024-04-11T13:41:12.328Z,23.9
2024-04-11T13:42:28.455Z,23.9
2024-04-11T13:43:44.583Z,23.9
2024-04-11T13:45:00.738Z,23.9
2024-04-11T13:46:16.872Z,23.9
2024-04-11T13:47:33.001Z,23.9
2024-04-11T13:48:49.141Z,23.9
2024-04-11T13:50:05.265Z,23.8
2024-04-11T13:51:21.426Z,23.8
2024-04-11T13:52:37.554Z,23.8
2024-04-11T13:53:53.675Z,23.8
2024-04-11T13:55:09.810Z,23.8
2024-04-11T13:56:25.945Z,23.8
2024-04-11T13:57:42.094Z,23.8
2024-04-11T13:58:58.227Z,23.8
2024-04-11T14:00:14.366Z,23.8
2024-04-11T14:01:30.544Z,23.8
2024-04-11T14:02:45.792Z,23.8
2024-04-11T14:04:01.008Z,23.8
2024-04-11T14:05:16.141Z,23.8
2024-04-11T14:06:32.298Z,23.8
2024-04-11T14:07:48.421Z,23.8
2024-04-11T14:09:04.560Z,23.8
2024-04-11T14:10:20.696Z,23.8
2024-04-11T14:11:36.837Z,23.7
2024-04-11T14:12:52.970Z,23.7
2024-04-11T14:14:09.113Z,23.7
2024-04-11T14:15:25.250Z,23.7
2024-04-11T14:17:57.507Z,23.7
2024-04-11T14:19:13.660Z,23.7
2024-04-11T14:20:29.795Z,23.7
2024-04-11T14:21:45.930Z,23.7
2024-04-11T14:23:02.055Z,23.7
2024-04-11T14:24:18.192Z,23.7
2024-04-11T14:25:34.335Z,23.7
2024-04-11T14:26:50.464Z,23.7
2024-04-11T14:28:06.601Z,23.6
2024-04-11T14:29:22.731Z,23.6
2024-04-11T14:30:38.876Z,23.6
2024-04-11T14:31:55.018Z,23.6
2024-04-11T14:33:11.148Z,23.5
2024-04-11T14:34:27.291Z,23.5
2024-04-11T14:35:43.422Z,23.5
2024-04-11T14:36:59.557Z,23.4
2024-04-11T14:38:15.707Z,23.4
2024-04-11T14:39:31.832Z,23.4
2024-04-11T14:40:47.959Z,23.4
2024-04-11T14:42:04.097Z,23.4
2024-04-11T14:43:20.237Z,23.4
2024-04-11T14:44:36.383Z,23.4
2024-04-11T14:45:52.519Z,23.4
2024-04-11T14:47:08.639Z,23.4
2024-04-11T14:48:24.775Z,23.4
2024-04-11T14:49:40.000Z,23.4
2024-04-11T14:50:57.062Z,23.4
2024-04-11T14:52:13.246Z,23.3
2024-04-11T14:53:28.494Z,23.3
2024-04-11T14:54:43.698Z,23.3
2024-04-11T14:55:59.828Z,23.3
2024-04-11T14:57:15.963Z,23.3
2024-04-11T14:58:32.100Z,23.3
2024-04-11T14:59:48.231Z,23.3
2024-04-11T15:01:04.381Z,23.3
2024-04-11T15:02:20.521Z,23.3
2024-04-11T15:03:36.638Z,23.4
2024-04-11T15:04:52.773Z,23.4
2024-04-11T15:06:08.909Z,23.4
2024-04-11T15:07:25.053Z,23.4
2024-04-11T15:08:41.199Z,23.4
2024-04-11T15:09:57.322Z,23.4
2024-04-11T15:11:13.454Z,23.4
2024-04-11T15:12:29.603Z,23.3
2024-04-11T15:13:45.744Z,23.3
2024-04-11T15:15:01.880Z,23.3
2024-04-11T15:16:18.007Z,23.3
2024-04-11T15:17:34.136Z,23.2
2024-04-11T15:18:50.269Z,23.2
2024-04-11T15:20:06.424Z,23.2
2024-04-11T15:21:22.555Z,23.2
2024-04-11T15:22:38.691Z,23.2
2024-04-11T15:23:54.825Z,23.1
2024-04-11T15:25:10.952Z,23.1
2024-04-11T15:26:27.172Z,23.1
2024-04-11T15:27:42.412Z,23
2024-04-11T15:28:57.630Z,23
2024-04-11T15:30:13.781Z,23
2024-04-11T15:31:29.905Z,23
2024-04-11T15:32:46.030Z,23
2024-04-11T15:34:02.177Z,23
2024-04-11T15:35:18.303Z,22.9
2024-04-11T15:36:34.447Z,22.9
2024-04-11T15:37:50.589Z,22.9
2024-04-11T15:39:06.722Z,22.9
2024-04-11T15:40:22.862Z,22.8
2024-04-11T15:41:38.989Z,22.8
2024-04-11T15:42:55.137Z,22.8
2024-04-11T15:44:11.266Z,22.8
2024-04-11T15:45:27.395Z,22.8
2024-04-11T15:46:43.538Z,22.8
2024-04-11T15:47:59.679Z,22.7
2024-04-11T15:49:15.812Z,22.7
2024-04-11T15:50:31.950Z,22.7
2024-04-11T15:51:48.087Z,22.7
2024-04-11T15:53:04.216Z,22.7
2024-04-11T15:54:20.353Z,22.7
2024-04-11T15:55:36.504Z,22.6
2024-04-11T15:56:52.637Z,22.6
2024-04-11T15:58:08.775Z,22.6
2024-04-11T15:59:24.893Z,22.6
2024-04-11T16:00:41.087Z,22.6
2024-04-11T16:01:56.326Z,22.6
2024-04-11T16:03:12.514Z,22.5
2024-04-11T16:04:27.732Z,22.5
2024-04-11T16:05:43.884Z,22.5
2024-04-11T16:07:00.016Z,22.5
2024-04-11T16:08:16.150Z,22.5
2024-04-11T16:09:32.283Z,22.5
2024-04-11T16:10:48.399Z,22.5
2024-04-11T16:12:04.562Z,22.5
2024-04-11T16:13:20.695Z,22.5
2024-04-11T16:14:36.819Z,22.5
2024-04-11T16:15:52.947Z,22.5
2024-04-11T16:17:09.088Z,22.5
2024-04-11T16:18:25.232Z,22.4
2024-04-11T16:19:41.367Z,22.4
2024-04-11T16:20:57.494Z,22.4
2024-04-11T16:22:13.640Z,22.4
2024-04-11T16:23:29.776Z,22.4
2024-04-11T16:24:45.918Z,22.4
2024-04-11T16:26:02.058Z,22.4
2024-04-11T16:27:18.187Z,22.3
2024-04-11T16:28:34.326Z,22.3
2024-04-11T16:29:50.458Z,22.3
2024-04-11T16:31:06.604Z,22.3
2024-04-11T16:32:22.739Z,22.3
2024-04-11T16:33:38.867Z,22.3
2024-04-11T16:34:55.000Z,22.3
2024-04-11T16:36:11.192Z,22.3
2024-04-11T16:37:26.428Z,22.3
2024-04-11T16:38:41.631Z,22.2
2024-04-11T16:39:57.777Z,22.2
2024-04-11T16:41:13.914Z,22.2
2024-04-11T16:42:30.052Z,22.2
2024-04-11T16:43:46.181Z,22.2
2024-04-11T16:45:02.313Z,22.2
2024-04-11T16:46:18.446Z,22.2
2024-04-11T16:47:34.600Z,22.1
2024-04-11T16:48:50.725Z,22.1
2024-04-11T16:50:06.858Z,22.1
2024-04-11T16:51:23.006Z,22.1
2024-04-11T16:52:39.135Z,22.1
2024-04-11T16:53:55.275Z,22.1
2024-04-11T16:55:11.415Z,22.1
2024-04-11T16:56:27.544Z,22.1
2024-04-11T16:57:43.674Z,22.1
2024-04-11T16:58:59.813Z,22
2024-04-11T17:00:15.948Z,22
2024-04-11T17:01:32.101Z,22
2024-04-11T17:02:48.227Z,22
2024-04-11T17:04:04.366Z,22
2024-04-11T17:05:20.495Z,22
2024-04-11T17:06:36.630Z,22